Time;durP1;ratioP1;P1;durP2;ratioP2;P2;SDS_P1;SDS_P2;PMS_P1;PMS_P2;Temp;Humidity;BMP_temperature;BMP_pressure;BME280_temperature;BME280_humidity;BME280_pressure;Samples;Min_cycle;Max_cycle;Signal;HPM_P1;HPM_P2
2020/12/24 00:00:01;;;;;;;21.90;20.10;;;9.10;99.90;;;;;;5054600;28;20247;-75
2020/12/24 00:02:26;;;;;;;18.17;16.77;;;9.10;99.90;;;;;;5054068;28;20170;-75
2020/12/24 00:04:52;;;;;;;22.30;20.57;;;9.10;99.90;;;;;;5054201;28;20196;-74
2020/12/24 00:07:17;;;;;;;20.43;19.17;;;9.10;99.90;;;;;;5054030;28;20197;-75
2020/12/24 00:09:46;;;;;;;22.50;21.00;;;9.10;99.90;;;;;;5054235;28;20184;-75
2020/12/24 00:12:13;;;;;;;23.83;22.33;;;9.10;99.90;;;;;;5054202;28;20257;-75
2020/12/24 00:14:39;;;;;;;22.40;20.57;;;9.10;99.90;;;;;;5053777;28;20458;-74
2020/12/24 00:17:05;;;;;;;21.43;19.70;;;9.10;99.90;;;;;;5054029;28;20455;-75
2020/12/24 00:19:30;;;;;;;19.50;18.17;;;9.10;99.90;;;;;;5053778;28;20397;-75
2020/12/24 00:21:56;;;;;;;19.40;17.40;;;9.00;99.90;;;;;;5053806;28;20405;-75
2020/12/24 00:24:21;;;;;;;20.00;18.50;;;9.00;99.90;;;;;;5053617;28;20170;-76
2020/12/24 00:26:47;;;;;;;20.67;19.33;;;9.00;99.90;;;;;;5053657;28;20264;-75
2020/12/24 00:29:12;;;;;;;17.70;16.60;;;8.90;99.90;;;;;;5053680;28;20512;-75
2020/12/24 00:31:39;;;;;;;17.47;16.27;;;8.90;99.90;;;;;;5053781;28;20200;-75
2020/12/24 00:34:05;;;;;;;18.37;16.70;;;8.80;99.90;;;;;;5053635;28;20165;-75
2020/12/24 00:36:31;;;;;;;19.23;17.83;;;8.80;99.90;;;;;;5053229;28;21015;-74
2020/12/24 00:38:57;;;;;;;19.52;18.10;;;8.60;99.90;;;;;;5053471;28;20401;-75
2020/12/24 00:41:23;;;;;;;19.80;18.30;;;8.60;99.90;;;;;;5035635;28;20542;-75
2020/12/24 00:43:49;;;;;;;26.00;24.20;;;8.50;99.90;;;;;;5053375;28;20180;-75
2020/12/24 00:46:15;;;;;;;23.95;21.92;;;8.50;99.90;;;;;;5053344;28;20817;-74
2020/12/24 00:48:41;;;;;;;21.87;20.37;;;8.40;99.90;;;;;;5053343;28;20177;-75
2020/12/24 00:51:06;;;;;;;23.27;21.80;;;8.30;99.90;;;;;;5053319;28;20174;-75
2020/12/24 00:53:32;;;;;;;26.00;24.20;;;8.20;99.90;;;;;;5038262;28;20177;-75
2020/12/24 00:55:58;;;;;;;21.03;19.40;;;8.20;99.90;;;;;;5057347;28;20197;-74
2020/12/24 00:58:23;;;;;;;21.70;19.90;;;8.20;99.90;;;;;;5057359;28;20699;-75
2020/12/24 01:00:49;;;;;;;19.00;17.40;;;8.10;99.90;;;;;;5057603;28;20624;-75
2020/12/24 01:03:14;;;;;;;19.77;18.17;;;8.10;99.90;;;;;;5057466;28;20253;-75
2020/12/24 01:05:40;;;;;;;25.87;23.67;;;8.00;99.90;;;;;;5057205;28;20173;-74
2020/12/24 01:08:05;;;;;;;24.20;22.60;;;8.00;99.90;;;;;;5057266;28;20190;-75
2020/12/24 01:10:31;;;;;;;26.47;24.40;;;8.00;99.90;;;;;;5057161;28;20687;-75
2020/12/24 01:12:57;;;;;;;29.80;27.90;;;8.10;99.90;;;;;;5057105;28;20170;-75
2020/12/24 01:15:23;;;;;;;27.27;25.17;;;8.00;99.90;;;;;;5056925;28;20173;-75
2020/12/24 01:17:49;;;;;;;24.93;22.70;;;8.00;99.90;;;;;;5056979;28;20670;-75
2020/12/24 01:20:15;;;;;;;31.37;29.47;;;8.00;99.90;;;;;;5057408;28;20169;-75
2020/12/24 01:22:40;;;;;;;28.83;26.73;;;7.90;99.90;;;;;;5057157;28;20400;-75
2020/12/24 01:25:06;;;;;;;32.97;30.67;;;7.90;99.90;;;;;;5038939;28;20260;-75
2020/12/24 01:27:32;;;;;;;33.73;31.07;;;7.80;1.00;;;;;;5056748;28;20200;-75
2020/12/24 01:29:58;;;;;;;31.85;29.60;;;7.80;1.00;;;;;;5056788;28;20173;-75
2020/12/24 01:32:23;;;;;;;31.90;29.80;;;7.80;1.00;;;;;;5056646;28;20181;-75
2020/12/24 01:34:49;;;;;;;31.77;29.70;;;7.80;1.00;;;;;;5038811;28;20174;-74
2020/12/24 01:37:15;;;;;;;29.17;26.90;;;7.80;1.00;;;;;;5056685;28;20198;-75
2020/12/24 01:39:41;;;;;;;25.73;23.83;;;7.80;1.00;;;;;;5056962;28;20161;-75
2020/12/24 01:42:06;;;;;;;23.60;21.80;;;7.80;1.00;;;;;;5056958;28;20177;-75
2020/12/24 01:44:32;;;;;;;28.50;26.40;;;7.70;1.00;;;;;;5038553;28;20177;-75
2020/12/24 01:46:58;;;;;;;33.40;31.40;;;7.70;1.00;;;;;;5056552;28;20255;-75
2020/12/24 01:49:23;;;;;;;23.67;21.87;;;7.70;1.00;;;;;;5038591;28;20178;-75
2020/12/24 01:51:57;;;;;;;23.53;21.73;;;7.70;1.00;;;;;;5056970;28;20181;-75
2020/12/24 01:54:25;;;;;;;23.60;21.80;;;7.70;1.00;;;;;;5056639;28;20200;-75
2020/12/24 01:56:51;;;;;;;27.42;25.63;;;7.60;1.00;;;;;;5056163;28;20205;-75
2020/12/24 01:59:19;;;;;;;24.47;23.10;;;7.50;1.00;;;;;;5056212;28;20268;-75
2020/12/24 02:01:47;;;;;;;25.38;23.98;;;7.40;1.00;;;;;;5056335;28;20482;-75
2020/12/24 02:04:13;;;;;;;24.23;22.83;;;7.30;1.00;;;;;;5036972;28;20224;-75
2020/12/24 02:06:43;;;;;;;21.98;20.67;;;7.30;1.00;;;;;;5056028;28;20201;-74
2020/12/24 02:09:09;;;;;;;20.77;19.58;;;7.20;1.00;;;;;;5056235;28;20632;-75
2020/12/24 02:11:37;;;;;;;21.38;20.08;;;7.10;1.00;;;;;;5038176;28;20209;-75
2020/12/24 02:14:03;;;;;;;23.92;22.10;;;7.20;1.00;;;;;;5056256;28;20178;-75
2020/12/24 02:16:28;;;;;;;20.33;19.13;;;7.20;1.00;;;;;;5055701;28;20311;-74
2020/12/24 02:18:54;;;;;;;14.07;13.27;;;7.20;1.00;;;;;;5038084;28;20227;-75
2020/12/24 02:21:20;;;;;;;17.60;16.70;;;6.90;1.00;;;;;;5055912;28;20462;-75
2020/12/24 02:23:45;;;;;;;17.70;16.80;;;6.90;1.00;;;;;;5055858;28;20169;-75
2020/12/24 02:26:11;;;;;;;20.80;19.80;;;6.90;1.00;;;;;;5037724;28;20182;-74
2020/12/24 02:28:37;;;;;;;16.90;15.88;;;6.90;1.00;;;;;;5055734;28;20189;-75
2020/12/24 02:31:04;;;;;;;16.40;15.50;;;6.90;1.00;;;;;;5055670;28;20178;-75
2020/12/24 02:33:29;;;;;;;19.63;18.52;;;6.90;1.00;;;;;;5055686;28;20295;-75
2020/12/24 02:35:55;;;;;;;23.97;22.77;;;6.90;1.00;;;;;;5055501;28;20280;-75
2020/12/24 02:38:21;;;;;;;20.07;18.97;;;6.90;1.00;;;;;;5055476;28;20190;-75
2020/12/24 02:40:47;;;;;;;15.07;14.27;;;6.80;1.00;;;;;;5055512;28;20166;-75
2020/12/24 02:43:12;;;;;;;18.50;17.67;;;6.80;1.00;;;;;;5055678;28;20169;-75
2020/12/24 02:45:38;;;;;;;16.70;15.80;;;6.70;1.00;;;;;;5055365;28;20188;-74
2020/12/24 02:48:04;;;;;;;19.20;18.30;;;6.70;1.00;;;;;;5055529;28;20289;-75
2020/12/24 02:50:29;;;;;;;16.85;16.05;;;6.60;1.00;;;;;;5055381;28;20185;-75
2020/12/24 02:52:55;;;;;;;15.00;14.37;;;6.60;1.00;;;;;;5055297;28;20170;-75
2020/12/24 02:55:21;;;;;;;18.77;18.07;;;6.50;1.00;;;;;;5037263;28;20673;-74
2020/12/24 02:57:47;;;;;;;16.55;15.75;;;6.50;1.00;;;;;;5055024;28;20200;-75
2020/12/24 03:00:12;;;;;;;18.60;17.80;;;6.60;1.00;;;;;;5055424;28;20170;-75
2020/12/24 03:02:38;;;;;;;19.70;19.00;;;6.60;1.00;;;;;;5055310;28;20686;-75
2020/12/24 03:05:07;;;;;;;17.00;16.20;;;6.70;1.00;;;;;;5054929;28;20170;-74
2020/12/24 03:07:34;;;;;;;15.52;14.82;;;6.60;1.00;;;;;;5037020;28;20983;-75
2020/12/24 03:09:59;;;;;;;15.30;14.52;;;6.60;1.00;;;;;;5055000;28;20260;-75
2020/12/24 03:12:27;;;;;;;15.47;14.67;;;6.70;1.00;;;;;;5055097;28;20208;-75
2020/12/24 03:14:53;;;;;;;16.00;15.30;;;6.60;1.00;;;;;;5054657;28;20181;-75
2020/12/24 03:17:20;;;;;;;16.02;15.27;;;6.60;1.00;;;;;;5054739;28;20213;-75
2020/12/24 03:19:46;;;;;;;18.33;17.52;;;6.70;1.00;;;;;;5055020;28;20621;-75
2020/12/24 03:22:12;;;;;;;15.88;15.18;;;6.60;1.00;;;;;;5054715;28;20177;-75
2020/12/24 03:24:38;;;;;;;17.90;17.10;;;6.50;1.00;;;;;;5036871;28;20237;-74
2020/12/24 03:27:03;;;;;;;20.67;19.87;;;6.40;1.00;;;;;;5054721;28;20679;-75
2020/12/24 03:29:29;;;;;;;13.63;12.97;;;6.40;1.00;;;;;;5054553;28;20224;-75
2020/12/24 03:31:55;;;;;;;15.17;14.50;;;6.30;1.00;;;;;;5054819;28;20219;-75
2020/12/24 03:34:21;;;;;;;19.23;18.52;;;6.20;1.00;;;;;;5055565;28;20560;-75
2020/12/24 03:36:47;;;;;;;16.20;15.70;;;6.30;1.00;;;;;;5036373;28;20267;-74
2020/12/24 03:39:12;;;;;;;18.47;17.87;;;6.30;1.00;;;;;;5054402;28;20520;-75
2020/12/24 03:41:38;;;;;;;23.53;22.73;;;6.30;1.00;;;;;;5036740;28;20166;-75
2020/12/24 03:44:03;;;;;;;15.40;14.83;;;6.40;1.00;;;;;;5054365;28;20173;-75
2020/12/24 03:46:29;;;;;;;20.23;19.53;;;6.40;1.00;;;;;;5054142;28;20177;-75
2020/12/24 03:48:54;;;;;;;22.53;21.67;;;6.30;1.00;;;;;;5054516;28;20166;-75
2020/12/24 03:51:20;;;;;;;21.70;21.00;;;6.30;1.00;;;;;;5054488;28;20253;-75
2020/12/24 03:53:46;;;;;;;21.67;20.97;;;6.20;1.00;;;;;;5036451;28;20177;-75
2020/12/24 03:56:12;;;;;;;17.00;16.50;;;6.00;1.00;;;;;;5053816;28;20200;-74
2020/12/24 03:58:38;;;;;;;17.45;16.95;;;6.00;1.00;;;;;;5053937;28;20387;-75
2020/12/24 04:01:04;;;;;;;16.93;16.00;;;5.90;1.00;;;;;;5053982;28;20266;-75
2020/12/24 04:03:29;;;;;;;13.77;13.30;;;5.90;1.00;;;;;;5054032;28;20400;-75
2020/12/24 04:05:55;;;;;;;12.33;11.93;;;5.80;1.00;;;;;;5053950;28;20411;-74
2020/12/24 04:08:21;;;;;;;16.10;15.53;;;5.80;1.00;;;;;;5053829;28;20273;-75
2020/12/24 04:10:46;;;;;;;15.27;14.67;;;5.70;1.00;;;;;;5054038;28;20201;-75
2020/12/24 04:13:12;;;;;;;15.67;15.17;;;5.70;1.00;;;;;;5053803;28;20256;-75
2020/12/24 04:15:37;;;;;;;16.80;16.30;;;5.60;1.00;;;;;;5053587;28;20174;-75
2020/12/24 04:18:03;;;;;;;11.97;11.60;;;5.60;1.00;;;;;;5054117;28;20240;-75
2020/12/24 04:20:28;;;;;;;17.53;17.03;;;5.60;1.00;;;;;;5054012;28;20173;-75
2020/12/24 04:22:54;;;;;;;18.43;17.87;;;5.50;1.00;;;;;;5053715;28;20594;-75
2020/12/24 04:25:19;;;;;;;20.40;19.80;;;5.40;1.00;;;;;;5053573;28;20179;-75
2020/12/24 04:27:45;;;;;;;21.23;20.63;;;5.30;1.00;;;;;;5052784;28;20189;-75
2020/12/24 04:30:11;;;;;;;20.30;19.70;;;5.10;1.00;;;;;;5053558;28;20636;-75
2020/12/24 04:32:37;;;;;;;21.10;20.50;;;5.10;1.00;;;;;;5053525;28;20411;-75
2020/12/24 04:35:02;;;;;;;19.10;18.60;;;5.00;1.00;;;;;;5053433;28;20742;-75
2020/12/24 04:37:28;;;;;;;23.10;22.40;;;4.90;1.00;;;;;;5053313;28;20251;-75
2020/12/24 04:39:54;;;;;;;18.93;18.43;;;4.90;1.00;;;;;;5053374;28;20252;-75
2020/12/24 04:42:23;;;;;;;19.80;19.20;;;4.90;1.00;;;;;;5035551;28;20523;-75
2020/12/24 04:44:49;;;;;;;23.55;22.85;;;4.80;1.00;;;;;;5053572;28;20189;-75
2020/12/24 04:47:17;;;;;;;18.25;17.55;;;4.70;1.00;;;;;;5053833;28;20292;-75
2020/12/24 04:49:43;;;;;;;27.17;26.30;;;4.80;1.00;;;;;;5053291;28;20181;-75
2020/12/24 04:52:11;;;;;;;23.13;22.42;;;4.80;1.00;;;;;;5053296;28;20170;-75
2020/12/24 04:54:39;;;;;;;24.38;23.58;;;4.80;1.00;;;;;;5053464;28;20170;-75
2020/12/24 04:57:09;;;;;;;18.05;17.48;;;4.90;1.00;;;;;;5052913;28;20213;-75
2020/12/24 04:59:36;;;;;;;23.95;23.25;;;4.90;1.00;;;;;;5053525;28;20158;-75
2020/12/24 05:02:03;;;;;;;23.35;22.65;;;4.90;1.00;;;;;;5035307;28;20549;-75
2020/12/24 05:04:29;;;;;;;14.80;14.20;;;4.90;1.00;;;;;;5053448;28;20193;-75
2020/12/24 05:07:03;;;;;;;15.30;14.70;;;4.90;1.00;;;;;;5053290;28;20206;-75
2020/12/24 05:09:29;;;;;;;18.10;17.50;;;4.90;1.00;;;;;;5053413;28;20663;-75
2020/12/24 05:11:55;;;;;;;18.93;18.13;;;4.80;1.00;;;;;;5053163;28;20185;-75
2020/12/24 05:14:26;;;;;;;14.93;14.33;;;4.80;1.00;;;;;;5053493;28;20193;-75
2020/12/24 05:17:08;;;;;;;13.82;13.32;;;4.90;1.00;;;;;;5052977;28;20233;-74
2020/12/24 05:19:47;;;;;;;15.70;15.00;;;4.90;1.00;;;;;;5035187;28;20206;-75
2020/12/24 05:22:19;;;;;;;18.10;17.25;;;4.90;1.00;;;;;;5053231;28;20257;-75
2020/12/24 05:24:45;;;;;;;23.08;22.17;;;4.90;1.00;;;;;;5052957;28;20177;-75
2020/12/24 05:27:16;;;;;;;22.00;21.02;;;5.00;1.00;;;;;;5052793;28;20598;-75
2020/12/24 05:29:44;;;;;;;21.48;20.60;;;5.00;1.00;;;;;;5035146;28;20174;-75
2020/12/24 05:32:10;;;;;;;21.83;20.83;;;5.00;1.00;;;;;;5053052;28;20258;-75
2020/12/24 05:34:36;;;;;;;21.95;20.95;;;5.00;1.00;;;;;;5053137;28;20258;-75
2020/12/24 05:37:16;;;;;;;21.30;20.30;;;5.00;1.00;;;;;;5052618;28;20618;-75
2020/12/24 05:39:44;;;;;;;21.00;19.60;;;4.90;1.00;;;;;;5055587;28;20174;-75
2020/12/24 05:42:09;;;;;;;23.35;21.70;;;4.90;1.00;;;;;;5056948;28;20181;-75
2020/12/24 05:44:35;;;;;;;21.67;20.67;;;4.80;1.00;;;;;;5056761;28;20166;-75
2020/12/24 05:47:01;;;;;;;17.88;16.88;;;4.90;1.00;;;;;;5056353;28;20281;-74
2020/12/24 05:49:28;;;;;;;17.08;16.27;;;4.90;1.00;;;;;;5056519;28;20662;-75
2020/12/24 05:51:57;;;;;;;21.80;20.80;;;4.90;1.00;;;;;;5056553;28;20178;-75
2020/12/24 05:54:23;;;;;;;16.63;15.85;;;4.90;1.00;;;;;;5038620;28;20177;-75
2020/12/24 05:56:49;;;;;;;17.13;16.33;;;4.90;1.00;;;;;;5056193;28;20572;-75
2020/12/24 05:59:17;;;;;;;19.03;18.13;;;4.80;1.00;;;;;;5056237;28;20185;-75
2020/12/24 06:01:58;;;;;;;14.82;14.13;;;4.70;1.00;;;;;;5038454;28;20549;-75
2020/12/24 06:04:44;;;;;;;16.55;15.85;;;4.60;1.00;;;;;;5056561;28;20147;-75
2020/12/24 06:07:30;;;;;;;17.35;16.75;;;4.60;1.00;;;;;;5048607;28;20206;-75
2020/12/24 06:10:11;;;;;;;18.38;17.67;;;4.50;1.00;;;;;;5056405;28;20209;-74
2020/12/24 06:12:50;;;;;;;18.45;17.77;;;4.50;1.00;;;;;;5038306;28;20372;-75
2020/12/24 06:15:17;;;;;;;21.60;20.80;;;4.50;1.00;;;;;;5055988;28;20205;-75
2020/12/24 06:17:45;;;;;;;16.55;15.40;;;4.50;1.00;;;;;;5056000;28;20259;-75
2020/12/24 06:20:17;;;;;;;19.20;18.42;;;4.50;1.00;;;;;;5055923;28;20381;-75
2020/12/24 06:22:43;;;;;;;17.52;16.60;;;4.60;1.00;;;;;;5056117;28;20173;-74
2020/12/24 06:25:11;;;;;;;16.87;16.17;;;4.50;1.00;;;;;;5055935;28;20178;-74
2020/12/24 06:27:51;;;;;;;16.90;16.20;;;4.60;1.00;;;;;;5037962;28;20652;-74
2020/12/24 06:30:29;;;;;;;23.70;22.30;;;4.60;1.00;;;;;;5055991;28;20182;-75
2020/12/24 06:32:54;;;;;;;17.95;17.15;;;4.60;1.00;;;;;;5055731;28;20232;-75
2020/12/24 06:35:41;;;;;;;18.30;17.60;;;4.60;1.00;;;;;;5055691;28;20316;-74
2020/12/24 06:38:08;;;;;;;22.17;21.27;;;4.60;1.00;;;;;;5055519;28;20194;-75
2020/12/24 06:40:37;;;;;;;17.13;16.23;;;4.70;1.00;;;;;;5055523;28;20174;-75
2020/12/24 06:43:04;;;;;;;19.75;18.85;;;4.60;1.00;;;;;;5055457;28;20170;-75
2020/12/24 06:45:40;;;;;;;20.20;19.40;;;4.70;1.00;;;;;;5055568;28;20605;-74
2020/12/24 06:48:22;;;;;;;19.20;18.55;;;4.70;1.00;;;;;;5037506;28;20193;-75
2020/12/24 06:50:49;;;;;;;12.85;12.23;;;4.70;1.00;;;;;;5054566;28;20521;-75
2020/12/24 06:53:24;;;;;;;18.48;17.65;;;4.80;1.00;;;;;;5055459;28;20253;-75
2020/12/24 06:56:14;;;;;;;16.20;15.50;;;4.90;1.00;;;;;;5037260;28;20197;-75
2020/12/24 06:58:41;;;;;;;14.45;13.75;;;4.90;1.00;;;;;;5055109;28;20177;-75
2020/12/24 07:01:20;;;;;;;19.58;18.60;;;4.90;1.00;;;;;;5055200;28;20170;-75
2020/12/24 07:03:49;;;;;;;16.00;14.95;;;5.00;1.00;;;;;;5055291;28;20166;-75
2020/12/24 07:06:40;;;;;;;14.80;14.10;;;5.00;1.00;;;;;;5037034;28;20188;-75
2020/12/24 07:09:06;;;;;;;14.10;13.50;;;5.00;1.00;;;;;;5055045;28;20238;-75
2020/12/24 07:11:46;;;;;;;17.35;16.65;;;4.90;1.00;;;;;;5055212;28;20603;-75
2020/12/24 07:14:31;;;;;;;19.85;18.80;;;5.00;1.00;;;;;;5055080;28;20208;-75
2020/12/24 07:16:58;;;;;;;16.42;15.73;;;5.00;1.00;;;;;;5054654;28;20653;-74
2020/12/24 07:19:24;;;;;;;13.68;12.98;;;5.00;1.00;;;;;;5054924;28;20621;-75
2020/12/24 07:21:52;;;;;;;16.80;15.83;;;4.90;1.00;;;;;;5055006;28;20177;-75
2020/12/24 07:24:30;;;;;;;15.48;14.77;;;4.90;1.00;;;;;;5037051;28;20418;-75
2020/12/24 07:26:58;;;;;;;14.00;13.30;;;4.80;1.00;;;;;;5036685;28;20197;-75
2020/12/24 07:29:25;;;;;;;15.77;15.00;;;4.90;1.00;;;;;;5054937;28;20173;-75
2020/12/24 07:31:52;;;;;;;16.08;15.48;;;4.80;1.00;;;;;;5036843;28;20196;-75
2020/12/24 07:34:25;;;;;;;16.38;15.68;;;4.90;1.00;;;;;;5055068;28;20185;-75
2020/12/24 07:36:50;;;;;;;17.50;16.90;;;5.00;1.00;;;;;;5054251;28;20212;-75
2020/12/24 07:39:16;;;;;;;17.70;17.10;;;5.00;1.00;;;;;;5054405;28;20245;-75
2020/12/24 07:41:42;;;;;;;18.87;18.27;;;4.90;1.00;;;;;;5054365;28;20400;-75
2020/12/24 07:44:09;;;;;;;19.53;18.57;;;5.00;1.00;;;;;;5036806;28;20174;-75
2020/12/24 07:46:34;;;;;;;13.07;12.57;;;5.00;1.00;;;;;;5054307;28;20217;-74
2020/12/24 07:49:04;;;;;;;17.67;16.67;;;5.10;1.00;;;;;;5054516;28;20206;-75
2020/12/24 07:51:31;;;;;;;20.17;19.55;;;5.00;1.00;;;;;;5036384;28;20613;-75
2020/12/24 07:54:15;;;;;;;23.02;22.27;;;5.10;1.00;;;;;;5054117;28;20178;-75
2020/12/24 07:56:47;;;;;;;19.20;18.50;;;5.10;1.00;;;;;;5054155;28;20228;-75
2020/12/24 07:59:17;;;;;;;21.27;20.38;;;5.20;1.00;;;;;;5054009;28;20185;-75
2020/12/24 08:01:43;;;;;;;19.95;19.17;;;5.10;1.00;;;;;;5052920;28;20617;-75
2020/12/24 08:04:09;;;;;;;15.50;14.90;;;5.10;1.00;;;;;;5052104;28;20667;-75
2020/12/24 08:06:35;;;;;;;19.33;18.33;;;5.10;1.00;;;;;;5034099;28;20512;-75
2020/12/24 08:09:15;;;;;;;18.13;17.42;;;5.20;1.00;;;;;;5034337;28;20640;-75
2020/12/24 08:11:50;;;;;;;20.15;19.17;;;5.20;1.00;;;;;;5034432;28;20540;-75
2020/12/24 08:14:19;;;;;;;22.00;20.98;;;5.30;1.00;;;;;;5051956;28;20183;-75
2020/12/24 08:16:45;;;;;;;16.88;16.08;;;5.30;1.00;;;;;;5051092;28;20288;-74
2020/12/24 08:19:11;;;;;;;18.73;17.93;;;5.30;1.00;;;;;;5051913;28;20269;-75
2020/12/24 08:22:12;;;;;;;20.03;18.93;;;5.30;1.00;;;;;;5033801;28;20408;-74
2020/12/24 08:24:40;;;;;;;27.00;25.77;;;5.30;1.00;;;;;;5017813;28;20189;-75
2020/12/24 08:27:06;;;;;;;33.70;30.63;;;5.30;1.00;;;;;;5051315;28;20232;-75
2020/12/24 08:29:31;;;;;;;19.42;18.52;;;5.40;1.00;;;;;;5033758;28;20174;-75
2020/12/24 08:31:58;;;;;;;17.80;17.00;;;5.40;1.00;;;;;;5051253;28;20241;-73
2020/12/24 08:34:24;;;;;;;23.40;21.80;;;5.40;1.00;;;;;;5051565;28;20177;-75
2020/12/24 08:36:50;;;;;;;17.17;16.37;;;5.40;1.00;;;;;;5051393;28;20201;-74
2020/12/24 08:39:18;;;;;;;16.08;14.57;;;5.40;1.00;;;;;;5051361;28;20161;-74
2020/12/24 08:41:54;;;;;;;15.23;14.63;;;5.40;1.00;;;;;;5033473;28;20174;-73
2020/12/24 08:44:20;;;;;;;14.73;14.10;;;5.40;1.00;;;;;;5051699;28;20192;-73
2020/12/24 08:46:59;;;;;;;25.80;24.80;;;5.40;1.00;;;;;;5051428;28;20276;-73
2020/12/24 08:49:25;;;;;;;24.63;23.60;;;5.40;1.00;;;;;;5052115;28;20165;-74
2020/12/24 08:52:10;;;;;;;19.63;18.73;;;5.40;1.00;;;;;;5054768;28;20197;-74
2020/12/24 08:54:35;;;;;;;21.58;20.67;;;5.50;1.00;;;;;;5051881;28;20173;-74
2020/12/24 08:57:03;;;;;;;20.13;19.43;;;5.50;1.00;;;;;;5068293;28;20744;-74
2020/12/24 08:59:28;;;;;;;24.65;23.27;;;5.50;1.00;;;;;;5071829;28;20411;-73
2020/12/24 09:01:56;;;;;;;22.47;21.30;;;5.60;1.00;;;;;;5071370;28;20541;-74
2020/12/24 09:04:22;;;;;;;24.08;23.17;;;5.60;1.00;;;;;;5055954;28;20223;-73
2020/12/24 09:06:47;;;;;;;29.47;27.43;;;5.60;1.00;;;;;;5051955;28;20280;-74
2020/12/24 09:09:23;;;;;;;26.67;25.10;;;5.60;1.00;;;;;;5052105;28;20166;-74
2020/12/24 09:11:49;;;;;;;21.52;20.52;;;5.60;1.00;;;;;;5052009;28;20180;-74
2020/12/24 09:14:17;;;;;;;18.00;17.40;;;5.70;1.00;;;;;;5053940;28;20174;-74
2020/12/24 09:16:56;;;;;;;22.73;21.05;;;5.70;1.00;;;;;;5055612;28;20747;-74
2020/12/24 09:19:23;;;;;;;26.35;25.15;;;5.80;1.00;;;;;;5055954;28;20570;-73
2020/12/24 09:21:54;;;;;;;22.25;21.05;;;5.80;1.00;;;;;;5055844;28;20632;-74
2020/12/24 09:24:20;;;;;;;20.80;19.92;;;5.80;1.00;;;;;;5055923;28;20170;-74
2020/12/24 09:26:56;;;;;;;21.20;20.30;;;5.80;1.00;;;;;;5055558;28;20194;-73
2020/12/24 09:29:24;;;;;;;23.95;22.70;;;5.90;1.00;;;;;;5055598;28;20181;-74
2020/12/24 09:31:55;;;;;;;17.40;16.50;;;5.90;1.00;;;;;;5055740;28;20185;-74
2020/12/24 09:34:20;;;;;;;18.52;17.63;;;5.90;1.00;;;;;;5054008;28;20174;-73
2020/12/24 09:36:50;;;;;;;19.63;18.30;;;6.00;1.00;;;;;;5055237;28;20216;-73
2020/12/24 09:39:16;;;;;;;21.02;20.15;;;6.00;1.00;;;;;;5054508;28;20177;-74
2020/12/24 09:41:42;;;;;;;21.98;20.77;;;6.00;1.00;;;;;;5055478;28;20177;-74
2020/12/24 09:44:09;;;;;;;16.77;15.88;;;5.90;1.00;;;;;;5055579;28;20193;-73
2020/12/24 09:46:34;;;;;;;20.38;19.58;;;5.90;1.00;;;;;;5055227;28;20186;-73
2020/12/24 09:49:00;;;;;;;23.00;21.80;;;6.00;1.00;;;;;;5055439;28;20639;-74
2020/12/24 09:51:26;;;;;;;24.00;22.97;;;6.00;1.00;;;;;;5037576;28;20758;-74
2020/12/24 09:53:51;;;;;;;20.47;19.50;;;6.10;1.00;;;;;;5037679;28;20189;-73
2020/12/24 09:56:18;;;;;;;19.20;18.20;;;6.10;1.00;;;;;;5055083;28;20656;-74
2020/12/24 09:58:44;;;;;;;16.58;15.77;;;6.10;1.00;;;;;;5055287;28;20189;-74
2020/12/24 10:01:09;;;;;;;17.20;16.30;;;6.10;1.00;;;;;;5055242;28;20170;-74
2020/12/24 10:03:35;;;;;;;18.90;17.00;;;6.10;1.00;;;;;;5055166;28;20162;-74
2020/12/24 10:06:01;;;;;;;16.37;15.03;;;6.00;1.00;;;;;;5037135;28;20177;-74
2020/12/24 10:08:26;;;;;;;17.57;16.33;;;6.00;1.00;;;;;;5054989;28;20200;-74
2020/12/24 10:10:52;;;;;;;21.53;20.13;;;6.10;1.00;;;;;;5054918;28;20231;-74
2020/12/24 10:13:17;;;;;;;18.97;17.57;;;6.10;1.00;;;;;;5054983;28;20221;-73
2020/12/24 10:15:44;;;;;;;19.83;18.43;;;6.00;1.00;;;;;;5054953;28;20644;-74
2020/12/24 10:18:10;;;;;;;18.35;17.25;;;6.00;1.00;;;;;;5054990;28;20731;-73
2020/12/24 10:20:36;;;;;;;19.77;18.30;;;6.10;1.00;;;;;;5055192;28;20261;-74
2020/12/24 10:23:01;;;;;;;22.67;21.00;;;6.10;1.00;;;;;;5037021;28;20178;-75
2020/12/24 10:25:27;;;;;;;22.57;20.53;;;6.10;1.00;;;;;;5053512;28;20195;-74
2020/12/24 10:27:52;;;;;;;19.33;17.90;;;6.20;1.00;;;;;;5054746;28;20319;-74
2020/12/24 10:30:18;;;;;;;21.17;19.70;;;6.10;1.00;;;;;;5054181;28;20184;-75
2020/12/24 10:32:44;;;;;;;23.30;21.47;;;6.20;1.00;;;;;;5053424;28;20177;-74
2020/12/24 10:35:09;;;;;;;23.93;22.23;;;6.30;1.00;;;;;;5054573;28;20178;-74
2020/12/24 10:37:35;;;;;;;23.07;21.23;;;6.30;1.00;;;;;;5054103;28;20864;-75
2020/12/24 10:40:01;;;;;;;24.33;22.83;;;6.40;1.00;;;;;;5054352;28;20154;-74
2020/12/24 10:42:26;;;;;;;25.93;24.13;;;6.40;1.00;;;;;;5053599;28;20166;-75
2020/12/24 10:44:52;;;;;;;26.30;24.60;;;6.50;1.00;;;;;;5053786;28;20174;-74
2020/12/24 10:47:18;;;;;;;23.13;21.70;;;6.50;1.00;;;;;;5053526;28;20755;-74
2020/12/24 10:49:45;;;;;;;22.43;18.70;;;6.60;1.00;;;;;;5035622;28;20192;-74
2020/12/24 10:52:13;;;;;;;23.08;21.88;;;6.60;1.00;;;;;;5054750;28;20227;-74
2020/12/24 10:54:39;;;;;;;20.58;19.38;;;6.60;1.00;;;;;;5054480;28;20216;-75
2020/12/24 10:57:04;;;;;;;21.80;20.50;;;6.60;1.00;;;;;;5052685;28;20221;-75
2020/12/24 10:59:30;;;;;;;20.17;18.77;;;6.60;1.00;;;;;;5063427;28;20178;-75
2020/12/24 11:01:56;;;;;;;20.10;19.00;;;6.60;1.00;;;;;;5072480;28;20165;-75
2020/12/24 11:04:21;;;;;;;20.03;19.10;;;6.70;1.00;;;;;;5073235;28;20154;-75
2020/12/24 11:06:47;;;;;;;21.93;20.60;;;6.70;1.00;;;;;;5074025;28;20274;-75
2020/12/24 11:09:14;;;;;;;19.10;17.70;;;6.70;1.00;;;;;;5073927;28;20169;-74
2020/12/24 11:11:40;;;;;;;17.08;15.68;;;6.70;1.00;;;;;;5073844;28;20169;-74
2020/12/24 11:14:06;;;;;;;19.90;18.17;;;6.80;1.00;;;;;;5074002;28;20180;-74
2020/12/24 11:16:33;;;;;;;16.73;15.63;;;6.80;1.00;;;;;;5074040;28;20280;-74
2020/12/24 11:18:59;;;;;;;21.25;20.17;;;6.80;1.00;;;;;;5074084;28;20173;-75
2020/12/24 11:21:24;;;;;;;18.30;16.60;;;6.60;1.00;;;;;;5074249;28;20162;-74
2020/12/24 11:23:51;;;;;;;17.07;15.93;;;6.70;1.00;;;;;;5070517;28;20959;-75
2020/12/24 11:26:25;;;;;;;21.23;19.98;;;6.60;1.00;;;;;;5054675;28;20211;-75
2020/12/24 11:28:52;;;;;;;22.40;21.40;;;6.60;1.00;;;;;;5073599;28;20219;-75
2020/12/24 11:31:28;;;;;;;16.08;14.73;;;6.70;1.00;;;;;;5071325;28;20183;-75
2020/12/24 11:33:55;;;;;;;19.90;19.10;;;6.70;1.00;;;;;;5073485;28;20249;-75
2020/12/24 11:36:21;;;;;;;20.13;19.00;;;6.70;1.00;;;;;;5072544;28;20195;-76
2020/12/24 11:38:48;;;;;;;20.40;19.40;;;6.80;1.00;;;;;;5072752;28;20176;-75
2020/12/24 11:41:21;;;;;;;19.38;18.45;;;6.80;1.00;;;;;;5074073;28;20224;-74
2020/12/24 11:43:48;;;;;;;18.70;17.80;;;6.80;1.00;;;;;;5073137;28;20185;-75
2020/12/24 11:46:15;;;;;;;19.60;18.38;;;6.90;1.00;;;;;;5073084;28;20695;-76
2020/12/24 11:48:42;;;;;;;16.80;16.08;;;6.90;1.00;;;;;;5072950;28;20635;-76
2020/12/24 11:51:12;;;;;;;15.52;14.63;;;7.00;1.00;;;;;;5055086;28;20177;-75
2020/12/24 11:53:40;;;;;;;15.18;14.25;;;7.00;1.00;;;;;;5072835;28;20168;-76
2020/12/24 11:56:06;;;;;;;16.70;15.60;;;7.10;1.00;;;;;;5072552;28;20197;-76
2020/12/24 11:58:32;;;;;;;19.25;18.25;;;7.10;1.00;;;;;;5072587;28;20291;-75
2020/12/24 12:00:59;;;;;;;15.77;14.93;;;7.20;1.00;;;;;;5072762;28;20241;-75
2020/12/24 12:03:25;;;;;;;17.80;16.85;;;7.20;1.00;;;;;;5072985;28;20415;-75
2020/12/24 12:05:50;;;;;;;16.17;15.30;;;7.20;1.00;;;;;;5072500;28;20197;-76
2020/12/24 12:08:17;;;;;;;15.20;13.97;;;7.20;1.00;;;;;;5054598;28;20185;-75
2020/12/24 12:10:43;;;;;;;20.70;19.48;;;7.20;1.00;;;;;;5072713;28;20170;-76
2020/12/24 12:13:09;;;;;;;21.85;20.65;;;7.30;1.00;;;;;;5054697;28;20683;-75
2020/12/24 12:15:35;;;;;;;20.57;19.67;;;7.30;1.00;;;;;;5072477;28;20302;-76
2020/12/24 12:18:00;;;;;;;20.43;19.43;;;7.30;1.00;;;;;;5072766;28;20211;-76
2020/12/24 12:20:26;;;;;;;16.37;15.50;;;7.20;1.00;;;;;;5072879;28;20244;-76
2020/12/24 12:22:52;;;;;;;14.57;13.80;;;7.20;1.00;;;;;;5072348;28;20407;-75
2020/12/24 12:25:19;;;;;;;12.90;12.05;;;7.20;1.00;;;;;;5072592;28;20640;-76
2020/12/24 12:27:47;;;;;;;14.73;13.65;;;7.20;1.00;;;;;;5072658;28;20279;-76
2020/12/24 12:30:13;;;;;;;17.73;16.60;;;7.20;1.00;;;;;;5072427;28;20649;-76
2020/12/24 12:32:39;;;;;;;20.70;19.58;;;7.10;1.00;;;;;;5072617;28;20666;-76
2020/12/24 12:35:05;;;;;;;16.73;15.80;;;7.10;1.00;;;;;;5072682;28;20204;-76
2020/12/24 12:37:34;;;;;;;16.20;15.60;;;7.10;1.00;;;;;;5071889;28;20205;-75
2020/12/24 12:40:00;;;;;;;16.65;15.93;;;7.10;1.00;;;;;;5072529;28;20188;-76
2020/12/24 12:42:25;;;;;;;17.90;16.27;;;7.10;1.00;;;;;;5072426;28;20231;-76
2020/12/24 12:44:51;;;;;;;14.73;13.90;;;7.10;1.00;;;;;;5054595;28;20941;-75
2020/12/24 12:47:16;;;;;;;10.37;9.83;;;7.10;1.00;;;;;;5070133;28;20707;-75